createdAt,value
2022-08-03T00:01:27.923Z,18.64
2022-08-03T00:03:54.516Z,18.84
2022-08-03T00:06:21.252Z,18.82
2022-08-03T00:08:47.947Z,18.69
2022-08-03T00:11:14.731Z,18.71
2022-08-03T00:13:41.530Z,18.67
2022-08-03T00:16:10.840Z,18.60
2022-08-03T00:18:38.144Z,18.79
2022-08-03T00:21:05.881Z,18.57
2022-08-03T00:23:51.682Z,18.55
2022-08-03T00:26:20.619Z,18.55
2022-08-03T00:28:47.488Z,18.55
2022-08-03T00:31:14.317Z,18.49
2022-08-03T00:33:58.180Z,18.56
2022-08-03T00:36:27.634Z,18.56
2022-08-03T00:38:54.567Z,18.47
2022-08-03T00:41:21.396Z,18.48
2022-08-03T00:43:48.269Z,18.39
2022-08-03T00:46:20.561Z,18.53
2022-08-03T00:48:53.266Z,18.37
2022-08-03T00:51:24.085Z,18.36
2022-08-03T00:53:51.217Z,18.49
2022-08-03T00:56:18.241Z,18.30
2022-08-03T00:58:46.200Z,18.49
2022-08-03T01:01:13.172Z,18.26
2022-08-03T01:03:40.298Z,18.29
2022-08-03T01:06:16.112Z,18.39
2022-08-03T01:09:10.656Z,18.16
2022-08-03T01:12:01.069Z,18.18
2022-08-03T01:14:34.030Z,18.33
2022-08-03T01:17:14.942Z,18.25
2022-08-03T01:20:00.548Z,18.25
2022-08-03T01:22:31.569Z,18.27
2022-08-03T01:25:16.333Z,18.21
2022-08-03T01:28:11.531Z,18.03
2022-08-03T01:30:40.451Z,18.03
2022-08-03T01:33:24.351Z,18.08
2022-08-03T01:36:00.823Z,18.10
2022-08-03T01:38:29.011Z,18.16
2022-08-03T01:40:57.098Z,17.95
2022-08-03T01:44:27.144Z,18.19
2022-08-03T01:46:17.788Z,18.11
2022-08-03T01:48:47.526Z,18.19
2022-08-03T01:51:16.856Z,18.15
2022-08-03T01:53:44.634Z,18.24
2022-08-03T01:56:13.487Z,18.08
2022-08-03T01:58:42.300Z,18.45
2022-08-03T02:01:10.409Z,18.36
2022-08-03T02:04:00.226Z,18.31
2022-08-03T02:07:02.847Z,18.52
2022-08-03T02:09:17.423Z,18.62
2022-08-03T02:11:46.728Z,18.51
2022-08-03T02:14:14.828Z,18.69
2022-08-03T02:16:43.906Z,18.59
2022-08-03T02:19:11.761Z,18.66
2022-08-03T02:21:56.316Z,18.56
2022-08-03T02:24:25.546Z,18.66
2022-08-03T02:26:55.725Z,18.66
2022-08-03T02:29:39.247Z,18.84
2022-08-03T02:32:14.477Z,18.74
2022-08-03T02:34:45.277Z,18.80
2022-08-03T02:37:13.630Z,18.94
2022-08-03T02:39:42.979Z,18.85
2022-08-03T02:42:12.926Z,19.01
2022-08-03T02:44:41.672Z,19.03
2022-08-03T02:47:11.133Z,18.94
2022-08-03T02:49:51.368Z,19.07
2022-08-03T02:52:21.714Z,19.02
2022-08-03T02:54:51.267Z,19.06
2022-08-03T02:57:21.734Z,19.08
2022-08-03T02:59:49.790Z,19.14
2022-08-03T03:02:18.423Z,19.17
2022-08-03T03:04:59.717Z,19.18
2022-08-03T03:07:39.794Z,19.14
2022-08-03T03:10:21.708Z,19.16
2022-08-03T03:12:52.065Z,19.03
2022-08-03T03:15:19.118Z,19.15
2022-08-03T03:17:46.992Z,19.08
2022-08-03T03:20:15.787Z,18.99
2022-08-03T03:22:58.385Z,19.06
2022-08-03T03:25:25.217Z,18.96
2022-08-03T03:27:52.361Z,19.01
2022-08-03T03:30:19.236Z,19.21
2022-08-03T03:32:46.047Z,19.03
2022-08-03T03:35:14.318Z,19.22
2022-08-03T03:37:40.973Z,19.15
2022-08-03T03:40:09.110Z,19.22
2022-08-03T03:42:36.174Z,19.26
2022-08-03T03:45:07.179Z,19.29
2022-08-03T03:47:37.874Z,19.14
2022-08-03T03:50:06.843Z,19.30
2022-08-03T03:52:34.142Z,19.20
2022-08-03T03:55:01.509Z,19.29
2022-08-03T03:57:29.696Z,19.13
2022-08-03T03:59:56.471Z,19.29
2022-08-03T04:02:23.188Z,19.02
2022-08-03T04:05:08.485Z,19.31
2022-08-03T04:08:10.150Z,19.19
2022-08-03T04:10:58.291Z,19.23
2022-08-03T04:13:27.849Z,19.30
2022-08-03T04:15:57.745Z,19.24
2022-08-03T04:18:28.225Z,19.14
2022-08-03T04:20:59.276Z,19.03
2022-08-03T04:23:27.821Z,19.15
2022-08-03T04:25:56.493Z,18.94
2022-08-03T04:28:30.125Z,19.22
2022-08-03T04:31:01.250Z,19.32
2022-08-03T04:33:32.462Z,19.31
2022-08-03T04:36:03.414Z,19.22
2022-08-03T04:38:44.441Z,19.20
2022-08-03T04:41:12.378Z,19.28
2022-08-03T04:43:42.122Z,19.20
2022-08-03T04:46:09.976Z,19.19
2022-08-03T04:48:36.840Z,19.25
2022-08-03T04:51:04.531Z,19.25
2022-08-03T04:53:31.407Z,19.26
2022-08-03T04:56:05.818Z,19.34
2022-08-03T04:58:33.023Z,19.33
2022-08-03T05:00:59.990Z,19.26
2022-08-03T05:03:26.704Z,19.31
2022-08-03T05:06:09.790Z,19.45
2022-08-03T05:08:46.454Z,19.27
2022-08-03T05:11:16.631Z,19.35
2022-08-03T05:13:44.705Z,19.36
2022-08-03T05:16:12.229Z,19.43
2022-08-03T05:18:38.998Z,19.24
2022-08-03T05:21:05.667Z,19.31
2022-08-03T05:23:32.412Z,19.25
2022-08-03T05:25:59.111Z,19.41
2022-08-03T05:28:26.222Z,19.23
2022-08-03T05:30:53.029Z,19.34
2022-08-03T05:33:19.656Z,19.55
2022-08-03T05:35:57.397Z,19.49
2022-08-03T05:38:33.922Z,19.61
2022-08-03T05:41:23.556Z,19.61
2022-08-03T05:43:53.945Z,19.57
2022-08-03T05:46:21.921Z,19.55
2022-08-03T05:48:48.736Z,19.66
2022-08-03T05:51:15.481Z,19.56
2022-08-03T05:53:43.639Z,19.54
2022-08-03T05:56:14.189Z,19.71
2022-08-03T05:58:45.973Z,19.61
2022-08-03T06:01:12.961Z,19.83
2022-08-03T06:03:40.298Z,19.64
2022-08-03T06:06:07.507Z,19.61
2022-08-03T06:08:35.520Z,19.98
2022-08-03T06:11:02.624Z,19.88
2022-08-03T06:13:29.646Z,19.99
2022-08-03T06:15:56.695Z,19.82
2022-08-03T06:18:24.652Z,19.82
2022-08-03T06:20:52.318Z,20.05
2022-08-03T06:23:19.320Z,19.92
2022-08-03T06:25:47.468Z,20.10
2022-08-03T06:31:03.168Z,20.12
2022-08-03T06:34:30.228Z,20.15
2022-08-03T06:36:16.540Z,20.35
2022-08-03T06:38:43.079Z,20.39
2022-08-03T06:41:09.705Z,20.25
2022-08-03T06:43:38.135Z,20.32
2022-08-03T06:46:24.385Z,20.38
2022-08-03T06:48:51.250Z,20.61
2022-08-03T06:51:18.356Z,20.47
2022-08-03T06:53:45.126Z,20.65
2022-08-03T06:56:11.841Z,20.71
2022-08-03T06:58:38.561Z,20.95
2022-08-03T07:01:05.321Z,20.89
2022-08-03T07:03:32.321Z,21.00
2022-08-03T07:06:00.029Z,21.21
2022-08-03T07:08:33.614Z,21.13
2022-08-03T07:11:01.629Z,21.19
2022-08-03T07:13:28.834Z,21.42
2022-08-03T07:15:58.229Z,21.36
2022-08-03T07:18:29.686Z,21.25
2022-08-03T07:20:58.018Z,21.21
2022-08-03T07:23:25.851Z,21.29
2022-08-03T07:25:53.093Z,21.32
2022-08-03T07:28:23.102Z,21.30
2022-08-03T07:30:49.758Z,21.42
2022-08-03T07:33:16.591Z,21.52
2022-08-03T07:35:43.639Z,21.53
2022-08-03T07:38:10.750Z,21.50
2022-08-03T07:40:43.161Z,21.39
2022-08-03T07:43:12.411Z,21.58
2022-08-03T07:45:39.181Z,21.62
2022-08-03T07:48:11.639Z,21.37
2022-08-03T07:50:39.076Z,21.41
2022-08-03T07:53:05.912Z,21.61
2022-08-03T07:55:32.681Z,21.65
2022-08-03T07:58:09.871Z,21.72
2022-08-03T08:00:37.010Z,21.60
2022-08-03T08:03:04.539Z,21.67
2022-08-03T08:05:31.696Z,21.60
2022-08-03T08:07:58.482Z,21.48
2022-08-03T08:10:25.522Z,21.49
2022-08-03T08:12:52.994Z,21.75
2022-08-03T08:15:19.948Z,21.66
2022-08-03T08:17:55.020Z,21.73
2022-08-03T08:20:27.966Z,21.43
2022-08-03T08:23:19.942Z,21.76
2022-08-03T08:25:52.042Z,21.65
2022-08-03T08:28:32.191Z,21.83
2022-08-03T08:30:59.980Z,21.69
2022-08-03T08:33:37.323Z,21.77
2022-08-03T08:36:15.399Z,21.74
2022-08-03T08:38:44.683Z,21.81
2022-08-03T08:41:13.280Z,22.07
2022-08-03T08:43:40.139Z,22.15
2022-08-03T08:46:10.554Z,22.29
2022-08-03T08:48:42.142Z,22.37
2022-08-03T08:51:11.681Z,22.65
2022-08-03T08:53:41.569Z,22.93
2022-08-03T08:56:12.968Z,22.97
2022-08-03T08:58:47.272Z,23.13
2022-08-03T09:01:13.957Z,23.20
2022-08-03T09:03:41.326Z,23.38
2022-08-03T09:06:08.510Z,23.52
2022-08-03T09:08:35.830Z,23.43
2022-08-03T09:11:03.026Z,23.57
2022-08-03T09:13:31.109Z,23.56
2022-08-03T09:16:19.855Z,23.66
2022-08-03T09:18:50.220Z,23.72
2022-08-03T09:21:34.152Z,23.71
2022-08-03T09:24:05.359Z,23.94
2022-08-03T09:26:35.482Z,23.78
2022-08-03T09:29:08.149Z,24.13
2022-08-03T09:31:44.030Z,24.26
2022-08-03T09:34:16.626Z,24.37
2022-08-03T09:36:51.088Z,24.47
2022-08-03T09:39:40.200Z,24.40
2022-08-03T09:42:15.438Z,24.72
2022-08-03T09:44:44.964Z,24.95
2022-08-03T09:47:13.593Z,24.90
2022-08-03T09:49:41.868Z,25.04
2022-08-03T09:52:31.951Z,24.81
2022-08-03T09:55:02.517Z,25.02
2022-08-03T09:57:33.085Z,25.01
2022-08-03T10:00:13.829Z,25.49
2022-08-03T10:02:42.296Z,25.44
2022-08-03T10:05:19.577Z,25.45
2022-08-03T10:07:48.788Z,25.68
2022-08-03T10:10:30.176Z,25.62
2022-08-03T10:13:00.256Z,25.73
2022-08-03T10:16:24.148Z,25.95
2022-08-03T10:18:14.473Z,25.87
2022-08-03T10:20:49.675Z,25.75
2022-08-03T10:23:18.584Z,26.06
2022-08-03T10:25:52.966Z,26.08
2022-08-03T10:28:21.844Z,26.81
2022-08-03T10:30:52.922Z,27.41
2022-08-03T10:33:50.713Z,27.64
2022-08-03T10:36:13.617Z,27.74
2022-08-03T10:38:54.242Z,27.82
2022-08-03T10:41:23.457Z,27.72
2022-08-03T10:44:10.459Z,27.71
2022-08-03T10:46:44.560Z,27.47
2022-08-03T10:49:21.470Z,27.59
2022-08-03T10:52:05.247Z,27.51
2022-08-03T10:55:10.033Z,27.66
2022-08-03T10:57:58.227Z,27.67
2022-08-03T11:00:28.125Z,27.83
2022-08-03T11:03:13.050Z,27.80
2022-08-03T11:05:42.388Z,28.03
2022-08-03T11:08:23.195Z,28.10
2022-08-03T11:10:53.024Z,27.93
2022-08-03T11:13:22.545Z,27.70
2022-08-03T11:15:52.214Z,27.86
2022-08-03T11:18:23.532Z,27.51
2022-08-03T11:20:59.487Z,27.65
2022-08-03T11:24:05.098Z,27.86
2022-08-03T11:26:36.507Z,27.73
2022-08-03T11:29:29.679Z,27.89
2022-08-03T11:31:57.130Z,28.04
2022-08-03T11:34:24.782Z,28.19
2022-08-03T11:37:30.161Z,28.26
2022-08-03T11:39:58.199Z,28.24
2022-08-03T11:42:25.036Z,28.58
2022-08-03T11:44:53.750Z,28.57
2022-08-03T11:47:21.843Z,28.52
2022-08-03T11:49:50.573Z,28.29
2022-08-03T11:52:18.253Z,28.84
2022-08-03T11:54:46.180Z,29.10
2022-08-03T11:57:13.514Z,29.39
2022-08-03T11:59:40.288Z,29.64
2022-08-03T12:02:16.155Z,29.77
2022-08-03T12:05:01.381Z,29.67
2022-08-03T12:08:04.566Z,29.69
2022-08-03T12:10:16.051Z,29.39
2022-08-03T12:12:46.799Z,29.16
2022-08-03T12:15:13.563Z,29.00
2022-08-03T12:17:41.939Z,28.98
2022-08-03T12:20:10.319Z,28.77
2022-08-03T12:22:39.818Z,28.82
2022-08-03T12:25:10.313Z,28.63
2022-08-03T12:27:37.059Z,28.61
2022-08-03T12:30:05.012Z,28.57
2022-08-03T12:32:31.802Z,28.25
2022-08-03T12:35:02.031Z,28.22
2022-08-03T12:37:29.757Z,28.20
2022-08-03T12:40:09.973Z,28.19
2022-08-03T12:42:39.609Z,28.07
2022-08-03T12:45:27.627Z,27.92
2022-08-03T12:47:57.095Z,28.06
2022-08-03T12:50:32.857Z,28.26
2022-08-03T12:53:00.683Z,28.73
2022-08-03T12:55:57.128Z,28.71
2022-08-03T12:58:34.243Z,28.69
2022-08-03T13:01:04.842Z,28.79
2022-08-03T13:03:42.777Z,28.65
2022-08-03T13:06:17.675Z,28.55
2022-08-03T13:08:46.182Z,28.63
2022-08-03T13:11:57.218Z,28.93
2022-08-03T13:14:19.681Z,29.26
2022-08-03T13:16:47.615Z,29.26
2022-08-03T13:19:15.527Z,29.10
2022-08-03T13:21:53.834Z,29.32
2022-08-03T13:24:31.590Z,29.18
2022-08-03T13:27:22.551Z,28.98
2022-08-03T13:29:48.395Z,28.74
2022-08-03T13:32:14.937Z,28.71
2022-08-03T13:34:41.584Z,28.93
2022-08-03T13:37:09.639Z,28.98
2022-08-03T13:39:57.339Z,29.04
2022-08-03T13:42:23.606Z,29.31
2022-08-03T13:44:50.926Z,29.59
2022-08-03T13:47:18.179Z,29.82
2022-08-03T13:50:00.516Z,30.11
2022-08-03T13:52:34.112Z,30.14
2022-08-03T13:55:01.929Z,30.17
2022-08-03T13:58:03.181Z,30.22
2022-08-03T14:00:27.134Z,30.36
2022-08-03T14:03:06.614Z,30.55
2022-08-03T14:05:39.255Z,30.86
2022-08-03T14:08:07.193Z,30.67
2022-08-03T14:10:35.991Z,31.06
2022-08-03T14:13:06.061Z,30.81
2022-08-03T14:15:37.936Z,30.74
2022-08-03T14:18:06.238Z,30.65
2022-08-03T14:20:37.799Z,30.52
2022-08-03T14:23:12.975Z,30.28
2022-08-03T14:25:50.416Z,30.08
2022-08-03T14:28:20.907Z,29.77
2022-08-03T14:30:48.747Z,29.28
2022-08-03T14:33:15.808Z,29.43
2022-08-03T14:35:42.826Z,29.26
2022-08-03T14:38:09.481Z,29.34
2022-08-03T14:40:36.272Z,29.26
2022-08-03T14:43:02.945Z,29.21
2022-08-03T14:45:29.568Z,29.24
2022-08-03T14:49:02.650Z,28.98
2022-08-03T14:50:51.513Z,29.01
2022-08-03T14:53:20.146Z,29.29
2022-08-03T14:55:51.773Z,29.54
2022-08-03T14:58:23.697Z,29.52
2022-08-03T15:00:51.883Z,29.57
2022-08-03T15:03:23.399Z,29.19
2022-08-03T15:05:56.008Z,29.22
2022-08-03T15:08:24.302Z,29.12
2022-08-03T15:10:53.267Z,28.88
2022-08-03T15:13:23.853Z,29.03
2022-08-03T15:15:51.863Z,29.04
2022-08-03T15:18:20.444Z,28.93
2022-08-03T15:20:51.141Z,28.92
2022-08-03T15:23:18.755Z,28.78
2022-08-03T15:26:03.923Z,28.67
2022-08-03T15:28:37.307Z,28.40
2022-08-03T15:31:04.729Z,28.14
2022-08-03T15:33:31.873Z,28.09
2022-08-03T15:36:00.517Z,28.10
2022-08-03T15:38:27.287Z,28.16
2022-08-03T15:40:57.094Z,28.00
2022-08-03T15:43:23.970Z,28.13
2022-08-03T15:46:12.766Z,27.86
2022-08-03T15:48:38.386Z,27.79
2022-08-03T15:51:05.778Z,27.72
2022-08-03T15:53:33.751Z,27.70
2022-08-03T15:56:02.046Z,27.89
2022-08-03T15:59:09.649Z,27.66
2022-08-03T16:01:20.358Z,27.62
2022-08-03T16:03:47.586Z,27.34
2022-08-03T16:06:14.352Z,27.31
2022-08-03T16:08:41.171Z,27.44
2022-08-03T16:11:08.019Z,27.43
2022-08-03T16:14:12.871Z,27.41
2022-08-03T16:16:21.634Z,27.07
2022-08-03T16:18:48.413Z,27.11
2022-08-03T16:21:15.610Z,27.33
2022-08-03T16:23:47.076Z,27.26
2022-08-03T16:26:14.116Z,27.01
2022-08-03T16:28:40.875Z,27.08
2022-08-03T16:31:09.392Z,27.16
2022-08-03T16:33:36.140Z,26.95
2022-08-03T16:36:03.050Z,26.88
2022-08-03T16:38:32.572Z,26.81
2022-08-03T16:40:59.351Z,26.57
2022-08-03T16:43:26.343Z,26.61
2022-08-03T16:45:53.281Z,26.71
2022-08-03T16:48:20.250Z,26.87
2022-08-03T16:50:47.536Z,26.84
2022-08-03T16:53:16.676Z,26.86
2022-08-03T16:55:53.448Z,26.88
2022-08-03T16:58:41.704Z,26.70
2022-08-03T17:01:24.129Z,26.63
2022-08-03T17:04:03.123Z,26.78
2022-08-03T17:06:36.855Z,26.94
2022-08-03T17:09:13.467Z,26.70
2022-08-03T17:11:47.839Z,26.67
2022-08-03T17:14:17.584Z,26.72
2022-08-03T17:16:54.697Z,26.57
2022-08-03T17:19:26.718Z,26.73
2022-08-03T17:22:10.805Z,26.73
2022-08-03T17:24:44.460Z,26.89
2022-08-03T17:28:41.437Z,26.99
2022-08-03T17:30:13.603Z,26.87
2022-08-03T17:32:56.856Z,26.66
2022-08-03T17:35:36.674Z,26.64
2022-08-03T17:38:13.839Z,26.53
2022-08-03T17:40:48.138Z,26.43
2022-08-03T17:44:13.250Z,26.51
2022-08-03T17:46:10.617Z,26.28
2022-08-03T17:48:41.368Z,26.31
2022-08-03T17:51:26.685Z,26.07
2022-08-03T17:54:18.030Z,26.10
2022-08-03T18:00:33.355Z,25.95
2022-08-03T18:03:24.865Z,26.14
2022-08-03T18:06:11.276Z,26.10
2022-08-03T18:08:50.625Z,25.88
2022-08-03T18:11:21.886Z,25.89
2022-08-03T18:14:16.991Z,25.58
2022-08-03T18:16:57.638Z,25.68
2022-08-03T18:20:02.635Z,25.79
2022-08-03T18:22:15.644Z,25.43
2022-08-03T18:24:42.445Z,25.61
2022-08-03T18:27:13.760Z,25.59
2022-08-03T18:29:43.364Z,25.36
2022-08-03T18:32:16.824Z,25.28
2022-08-03T18:34:53.840Z,25.37
2022-08-03T18:37:25.230Z,25.23
2022-08-03T18:39:55.554Z,24.98
2022-08-03T18:42:26.141Z,24.99
2022-08-03T18:44:55.860Z,24.85
2022-08-03T18:47:50.617Z,24.77
2022-08-03T18:50:29.009Z,24.95
2022-08-03T18:53:19.612Z,24.70
2022-08-03T18:56:02.442Z,24.93
2022-08-03T18:58:48.366Z,24.58
2022-08-03T19:01:57.706Z,24.82
2022-08-03T19:04:35.351Z,24.78
2022-08-03T19:07:09.211Z,24.75
2022-08-03T19:09:48.006Z,24.44
2022-08-03T19:12:28.290Z,24.60
2022-08-03T19:15:04.494Z,24.56
2022-08-03T19:17:36.091Z,24.34
2022-08-03T19:20:06.329Z,24.39
2022-08-03T19:22:33.443Z,24.32
2022-08-03T19:25:02.336Z,24.14
2022-08-03T19:27:31.148Z,24.22
2022-08-03T19:30:03.900Z,23.92
2022-08-03T19:32:32.633Z,24.06
2022-08-03T19:35:01.790Z,24.00
2022-08-03T19:37:38.723Z,23.94
2022-08-03T19:40:10.419Z,23.71
2022-08-03T19:43:00.285Z,23.79
2022-08-03T19:46:05.440Z,23.73
2022-08-03T19:48:28.917Z,23.57
2022-08-03T19:50:58.024Z,23.55
2022-08-03T19:53:35.268Z,23.46
2022-08-03T19:56:06.443Z,23.43
2022-08-03T19:58:35.421Z,23.34
2022-08-03T20:01:19.440Z,23.28
2022-08-03T20:03:49.554Z,23.24
2022-08-03T20:06:17.843Z,23.12
2022-08-03T20:08:45.510Z,23.09
2022-08-03T20:11:18.086Z,23.05
2022-08-03T20:13:48.385Z,22.93
2022-08-03T20:16:15.098Z,22.74
2022-08-03T20:18:42.777Z,22.78
2022-08-03T20:21:14.892Z,22.83
2022-08-03T20:24:01.874Z,22.68
2022-08-03T20:26:31.684Z,22.64
2022-08-03T20:29:09.863Z,22.65
2022-08-03T20:31:37.584Z,22.59
2022-08-03T20:34:06.274Z,22.55
2022-08-03T20:36:32.871Z,22.46
2022-08-03T20:38:59.652Z,22.46
2022-08-03T20:41:26.524Z,22.27
2022-08-03T20:43:53.146Z,22.35
2022-08-03T20:46:32.853Z,22.33
2022-08-03T20:49:05.729Z,22.14
2022-08-03T20:51:50.471Z,22.23
2022-08-03T20:54:29.733Z,22.15
2022-08-03T20:57:00.010Z,22.12
2022-08-03T20:59:36.883Z,22.04
2022-08-03T21:02:19.639Z,21.77
2022-08-03T21:04:56.003Z,21.90
2022-08-03T21:07:24.294Z,21.91
2022-08-03T21:09:52.747Z,21.72
2022-08-03T21:12:51.226Z,21.80
2022-08-03T21:12:55.925Z,26.22
2022-08-03T21:16:06.456Z,21.77
2022-08-03T21:18:11.847Z,21.71
2022-08-03T21:20:38.811Z,21.67
2022-08-03T21:23:09.124Z,21.63
2022-08-03T21:25:37.947Z,21.61
2022-08-03T21:28:07.577Z,21.55
2022-08-03T21:30:35.160Z,21.50
2022-08-03T21:33:02.209Z,21.46
2022-08-03T21:35:28.727Z,21.48
2022-08-03T21:38:13.806Z,21.32
2022-08-03T21:40:41.187Z,21.25
2022-08-03T21:43:08.354Z,21.26
2022-08-03T21:45:57.720Z,21.34
2022-08-03T21:48:25.590Z,21.33
2022-08-03T21:50:52.659Z,21.32
2022-08-03T21:53:19.851Z,21.28
2022-08-03T21:55:58.571Z,21.24
2022-08-03T21:58:30.964Z,21.15
2022-08-03T22:00:59.291Z,21.18
2022-08-03T22:03:26.622Z,21.17
2022-08-03T22:05:54.724Z,21.12
2022-08-03T22:08:34.397Z,20.94
2022-08-03T22:11:04.358Z,20.99
2022-08-03T22:13:43.603Z,21.01
2022-08-03T22:16:11.907Z,20.97
2022-08-03T22:18:41.058Z,20.97
2022-08-03T22:21:09.866Z,20.95
2022-08-03T22:23:48.816Z,20.76
2022-08-03T22:26:34.120Z,20.87
2022-08-03T22:29:01.960Z,20.89
2022-08-03T22:31:56.886Z,20.86
2022-08-03T22:34:15.364Z,20.90
2022-08-03T22:36:42.698Z,20.86
2022-08-03T22:39:09.855Z,20.88
2022-08-03T22:41:36.587Z,20.67
2022-08-03T22:44:04.773Z,20.75
2022-08-03T22:46:33.834Z,20.75
2022-08-03T22:49:01.414Z,20.77
2022-08-03T22:51:28.276Z,20.72
2022-08-03T22:53:55.173Z,20.70
2022-08-03T22:56:22.291Z,20.63
2022-08-03T22:58:48.884Z,20.62
2022-08-03T23:01:21.116Z,20.37
2022-08-03T23:03:58.617Z,20.54
2022-08-03T23:06:32.372Z,20.41
2022-08-03T23:08:59.029Z,20.45
2022-08-03T23:11:27.136Z,20.41
2022-08-03T23:13:56.508Z,20.38
2022-08-03T23:16:28.688Z,20.41
2022-08-03T23:18:57.971Z,20.36
2022-08-03T23:21:53.237Z,20.31
2022-08-03T23:24:17.736Z,20.30
2022-08-03T23:26:53.769Z,20.25
2022-08-03T23:29:21.688Z,20.19
2022-08-03T23:31:49.717Z,20.02
2022-08-03T23:34:36.279Z,19.95
2022-08-03T23:37:05.482Z,19.87
2022-08-03T23:39:35.307Z,19.99
2022-08-03T23:42:03.058Z,19.89
2022-08-03T23:44:31.971Z,19.95
2022-08-03T23:46:58.594Z,19.82
2022-08-03T23:49:25.171Z,19.87
2022-08-03T23:52:07.294Z,19.86
2022-08-03T23:54:33.893Z,19.83
2022-08-03T23:57:13.279Z,19.68
